Time;durP1;ratioP1;P1;durP2;ratioP2;P2;SDS_P1;SDS_P2;PMS_P1;PMS_P2;Temp;Humidity;BMP_temperature;BMP_pressure;BME280_temperature;BME280_humidity;BME280_pressure;Samples;Min_cycle;Max_cycle;Signal;HPM_P1;HPM_P2
2021/07/14 00:01:14;;;;;;;9.70;8.90;;;22.80;68.20;;;;;;5053069;28;20229;-68
2021/07/14 00:03:39;;;;;;;8.95;8.13;;;22.80;68.20;;;;;;5052748;28;20229;-69
2021/07/14 00:06:05;;;;;;;9.00;8.30;;;22.80;68.20;;;;;;5052276;28;20250;-68
2021/07/14 00:08:31;;;;;;;8.77;8.07;;;22.80;68.20;;;;;;5052293;28;20642;-69
2021/07/14 00:10:57;;;;;;;8.90;8.30;;;22.80;68.20;;;;;;5052995;28;20269;-68
2021/07/14 00:13:35;;;;;;;9.32;8.55;;;22.80;68.20;;;;;;5052353;28;20268;-68
2021/07/14 00:24:13;;;;;;;9.20;8.48;;;22.80;68.20;;;;;;5052664;28;20185;-68
2021/07/14 00:26:38;;;;;;;9.35;8.60;;;22.80;68.20;;;;;;5051679;28;20579;-67
2021/07/14 00:29:05;;;;;;;9.98;9.18;;;22.70;68.90;;;;;;5052685;28;20586;-67
2021/07/14 00:31:31;;;;;;;9.25;8.45;;;22.80;68.20;;;;;;5052362;28;20175;-68
2021/07/14 00:33:56;;;;;;;8.73;8.02;;;22.70;68.10;;;;;;5051893;28;20189;-68
2021/07/14 00:36:22;;;;;;;8.90;8.27;;;22.70;68.10;;;;;;5052955;28;20171;-68
2021/07/14 00:38:47;;;;;;;9.15;8.38;;;22.70;68.10;;;;;;5052181;28;20274;-68
2021/07/14 00:41:13;;;;;;;9.07;8.38;;;22.70;68.10;;;;;;5051754;28;20190;-68
2021/07/14 00:43:38;;;;;;;9.20;8.40;;;22.70;68.00;;;;;;5052342;28;20645;-68
2021/07/14 00:46:25;;;;;;;9.05;8.25;;;22.70;68.10;;;;;;5052461;28;20554;-68
2021/07/14 00:48:53;;;;;;;9.52;8.80;;;22.70;68.10;;;;;;5051315;28;20576;-68
2021/07/14 00:51:18;;;;;;;8.65;7.95;;;22.70;68.10;;;;;;5052245;28;20265;-68
2021/07/14 00:53:44;;;;;;;8.57;7.78;;;22.70;68.10;;;;;;5051921;28;20305;-68
2021/07/14 00:56:10;;;;;;;9.13;8.32;;;22.70;68.10;;;;;;5051928;28;20225;-68
2021/07/14 00:58:35;;;;;;;8.90;8.20;;;22.70;68.10;;;;;;5051928;28;20274;-68
2021/07/14 01:01:01;;;;;;;9.50;8.70;;;22.70;68.10;;;;;;5052202;28;20233;-67
2021/07/14 01:03:30;;;;;;;9.40;8.60;;;22.70;68.10;;;;;;5052008;28;20273;-68
2021/07/14 01:05:55;;;;;;;9.30;8.50;;;22.70;68.10;;;;;;5050945;28;20693;-68
2021/07/14 01:08:27;;;;;;;9.05;8.25;;;22.70;68.90;;;;;;5050155;28;20294;-69
2021/07/14 01:11:12;;;;;;;8.85;8.15;;;22.70;68.10;;;;;;5051534;28;20186;-68
2021/07/14 01:13:49;;;;;;;8.30;7.60;;;22.70;68.00;;;;;;5054607;28;20178;-68
2021/07/14 01:16:16;;;;;;;8.82;8.13;;;22.70;68.00;;;;;;5053973;28;20171;-68
2021/07/14 01:18:46;;;;;;;8.90;8.20;;;22.70;68.00;;;;;;5054522;28;20249;-68
2021/07/14 01:21:20;;;;;;;8.40;7.65;;;22.70;68.00;;;;;;5056066;28;20183;-68
2021/07/14 01:24:09;;;;;;;8.95;8.20;;;22.70;68.00;;;;;;5053587;28;20175;-68
2021/07/14 01:26:42;;;;;;;8.48;7.70;;;22.70;68.00;;;;;;5054007;28;20222;-67
2021/07/14 01:29:08;;;;;;;8.32;7.63;;;22.70;68.00;;;;;;5056088;28;20230;-67
2021/07/14 01:31:35;;;;;;;8.68;7.97;;;22.70;68.00;;;;;;5053556;28;20179;-67
2021/07/14 01:34:02;;;;;;;9.15;8.45;;;22.70;68.00;;;;;;5055694;28;20175;-67
2021/07/14 01:36:27;;;;;;;8.32;7.70;;;22.70;68.00;;;;;;5053513;28;20182;-68
2021/07/14 01:38:53;;;;;;;9.60;8.80;;;22.70;68.00;;;;;;5053968;28;20179;-68
2021/07/14 01:41:19;;;;;;;9.18;8.40;;;22.70;68.00;;;;;;5054127;28;20167;-68
2021/07/14 01:43:50;;;;;;;8.48;7.78;;;22.70;68.00;;;;;;5053416;28;20286;-68
2021/07/14 01:46:16;;;;;;;9.10;8.30;;;22.70;68.00;;;;;;5055580;28;20179;-68
2021/07/14 01:48:43;;;;;;;8.88;8.18;;;22.70;68.10;;;;;;5053818;28;20583;-68
2021/07/14 01:51:08;;;;;;;9.13;8.32;;;22.70;68.10;;;;;;5053140;28;20637;-67
2021/07/14 01:53:34;;;;;;;8.98;8.27;;;22.70;68.10;;;;;;5053889;28;20205;-68
2021/07/14 01:56:00;;;;;;;8.57;7.93;;;22.70;68.10;;;;;;5055041;28;20182;-67
2021/07/14 01:58:26;;;;;;;9.05;8.30;;;22.60;68.00;;;;;;5053427;28;20520;-68
2021/07/14 02:00:52;;;;;;;8.88;8.18;;;22.70;68.10;;;;;;5053741;28;20240;-68
2021/07/14 02:05:53;;;;;;;8.60;7.90;;;22.60;68.00;;;;;;5053009;28;20223;-69
2021/07/14 02:08:18;;;;;;;8.65;7.95;;;22.60;68.00;;;;;;5053529;28;20595;-68
2021/07/14 02:10:44;;;;;;;8.60;7.80;;;22.60;68.00;;;;;;5053411;28;20265;-68
2021/07/14 02:13:09;;;;;;;9.10;8.30;;;22.60;68.00;;;;;;5053079;28;20179;-68
2021/07/14 02:15:35;;;;;;;8.35;7.55;;;22.60;68.10;;;;;;5053151;28;20228;-68
2021/07/14 02:18:10;;;;;;;8.82;8.15;;;22.60;68.00;;;;;;5053569;28;20188;-68
2021/07/14 02:20:36;;;;;;;8.38;7.60;;;22.60;68.00;;;;;;5052516;28;20175;-68
2021/07/14 02:23:08;;;;;;;8.93;8.13;;;22.60;68.00;;;;;;5053225;28;20181;-68
2021/07/14 02:25:34;;;;;;;8.32;7.72;;;22.60;68.00;;;;;;5054131;28;20584;-68
2021/07/14 02:28:00;;;;;;;8.77;7.95;;;22.60;68.00;;;;;;5053890;28;20211;-67
2021/07/14 02:30:26;;;;;;;8.73;8.02;;;22.60;68.00;;;;;;5054566;28;20174;-68
2021/07/14 02:32:58;;;;;;;9.13;8.32;;;22.60;68.00;;;;;;5053424;28;20175;-68
2021/07/14 02:35:24;;;;;;;8.98;8.13;;;22.60;68.10;;;;;;5053449;28;20321;-68
2021/07/14 02:37:52;;;;;;;8.63;7.93;;;22.60;68.00;;;;;;5053019;28;20183;-68
2021/07/14 02:40:38;;;;;;;8.60;7.82;;;22.60;68.00;;;;;;5052427;28;20221;-68
2021/07/14 02:43:04;;;;;;;9.50;8.60;;;22.60;68.00;;;;;;5054418;28;20183;-67
2021/07/14 02:45:29;;;;;;;8.95;8.25;;;22.60;68.00;;;;;;5052796;28;20167;-68
2021/07/14 02:47:56;;;;;;;8.75;8.05;;;22.60;68.10;;;;;;5052011;28;20203;-68
2021/07/14 02:50:23;;;;;;;8.93;8.13;;;22.60;68.00;;;;;;5053121;28;20532;-68
2021/07/14 02:52:51;;;;;;;9.05;8.15;;;22.60;68.00;;;;;;5052690;28;20181;-67
2021/07/14 02:55:18;;;;;;;8.35;7.68;;;22.60;68.00;;;;;;5052207;28;20233;-68
2021/07/14 02:57:44;;;;;;;8.70;7.95;;;22.60;68.10;;;;;;5052442;28;20183;-67
2021/07/14 03:00:10;;;;;;;8.13;7.43;;;22.60;68.10;;;;;;5052688;28;20580;-67
2021/07/14 03:02:36;;;;;;;8.73;8.02;;;22.60;68.00;;;;;;5052729;28;20214;-68
2021/07/14 03:05:01;;;;;;;8.18;7.47;;;22.60;68.10;;;;;;5052825;28;20179;-68
2021/07/14 03:07:27;;;;;;;9.35;8.55;;;22.60;68.00;;;;;;5052646;28;20191;-68
2021/07/14 03:09:53;;;;;;;9.05;8.20;;;22.60;68.10;;;;;;5051621;28;20179;-68
2021/07/14 03:12:19;;;;;;;10.00;8.23;;;22.60;68.10;;;;;;5052569;28;20174;-68
2021/07/14 03:14:46;;;;;;;8.75;7.95;;;22.60;68.10;;;;;;5053373;28;20190;-68
2021/07/14 03:17:18;;;;;;;8.90;8.10;;;22.60;68.10;;;;;;5051564;28;20265;-68
2021/07/14 03:19:44;;;;;;;8.95;8.25;;;22.60;68.10;;;;;;5051948;28;20175;-68
2021/07/14 03:22:12;;;;;;;9.07;8.38;;;22.60;68.10;;;;;;5052810;28;20194;-68
2021/07/14 03:24:38;;;;;;;8.75;8.00;;;22.60;68.10;;;;;;5051809;28;20229;-67
2021/07/14 03:27:08;;;;;;;8.88;8.13;;;22.60;68.10;;;;;;5051981;28;20179;-68
2021/07/14 03:29:33;;;;;;;8.30;7.50;;;22.60;68.20;;;;;;5052272;28;20206;-67
2021/07/14 03:32:01;;;;;;;9.38;8.50;;;22.60;68.10;;;;;;5052339;28;20629;-68
2021/07/14 03:34:26;;;;;;;9.07;8.20;;;22.60;68.20;;;;;;5051932;28;20190;-68
2021/07/14 03:36:52;;;;;;;8.90;8.00;;;22.60;68.10;;;;;;5051360;28;20179;-68
2021/07/14 03:39:17;;;;;;;9.07;8.30;;;22.50;68.10;;;;;;5052102;28;20170;-68
2021/07/14 03:41:43;;;;;;;8.45;7.75;;;22.60;69.00;;;;;;5051736;28;20171;-68
2021/07/14 03:44:08;;;;;;;8.68;7.88;;;22.60;68.20;;;;;;5051175;28;20579;-68
2021/07/14 03:46:34;;;;;;;8.63;7.82;;;22.50;68.10;;;;;;5051706;28;20536;-68
2021/07/14 03:49:00;;;;;;;8.35;7.60;;;22.50;68.10;;;;;;5051710;28;20636;-68
2021/07/14 03:51:26;;;;;;;8.88;8.07;;;22.60;68.10;;;;;;5051378;28;20254;-68
2021/07/14 03:53:51;;;;;;;9.00;8.20;;;22.60;68.20;;;;;;5051583;28;20265;-67
2021/07/14 03:56:21;;;;;;;8.68;7.88;;;22.50;68.10;;;;;;5052928;28;20174;-67
2021/07/14 03:58:47;;;;;;;8.68;7.88;;;22.50;68.10;;;;;;5050689;28;20629;-67
2021/07/14 04:01:13;;;;;;;9.07;8.18;;;22.50;68.10;;;;;;5051934;28;20254;-67
2021/07/14 04:03:39;;;;;;;7.97;7.28;;;22.50;68.10;;;;;;5051626;28;20191;-67
2021/07/14 04:06:05;;;;;;;8.95;8.10;;;22.50;68.10;;;;;;5050848;28;20713;-67
2021/07/14 04:08:32;;;;;;;8.45;7.65;;;22.50;68.10;;;;;;5051400;28;20234;-69
2021/07/14 04:10:58;;;;;;;8.70;7.97;;;22.50;68.10;;;;;;5051551;28;20182;-68
2021/07/14 04:13:23;;;;;;;8.48;7.78;;;22.60;68.10;;;;;;5052160;28;20171;-68
2021/07/14 04:15:49;;;;;;;8.70;7.80;;;22.50;68.00;;;;;;5052667;28;20186;-69
2021/07/14 04:18:14;;;;;;;8.43;7.63;;;22.50;68.00;;;;;;5052087;28;20521;-68
2021/07/14 04:20:41;;;;;;;7.80;7.20;;;22.50;68.00;;;;;;5052312;28;20531;-68
2021/07/14 04:23:07;;;;;;;8.27;7.47;;;22.50;68.00;;;;;;5052846;28;20183;-67
2021/07/14 04:25:33;;;;;;;8.27;7.57;;;22.50;68.00;;;;;;5051680;28;20234;-67
2021/07/14 04:27:58;;;;;;;8.35;7.65;;;22.50;68.00;;;;;;5052681;28;20233;-67
2021/07/14 04:30:24;;;;;;;8.10;7.30;;;22.50;68.00;;;;;;5052754;28;20185;-67
2021/07/14 04:32:49;;;;;;;8.43;7.63;;;22.50;68.00;;;;;;5052090;28;20179;-68
2021/07/14 04:35:21;;;;;;;7.60;7.00;;;22.50;68.10;;;;;;5052963;28;20171;-68
2021/07/14 04:37:49;;;;;;;8.98;8.18;;;22.50;68.00;;;;;;5052309;28;20602;-68
2021/07/14 04:40:15;;;;;;;8.50;7.75;;;22.50;68.00;;;;;;5051785;28;20179;-68
2021/07/14 04:42:40;;;;;;;8.68;7.88;;;22.50;68.10;;;;;;5052376;28;20221;-68
2021/07/14 04:45:06;;;;;;;9.05;8.25;;;22.50;68.90;;;;;;5052203;28;20596;-67
2021/07/14 04:47:32;;;;;;;8.43;7.65;;;22.60;68.10;;;;;;5054944;28;20230;-67
2021/07/14 04:49:58;;;;;;;8.05;7.35;;;22.50;68.10;;;;;;5056596;28;20171;-68
2021/07/14 04:52:23;;;;;;;8.38;7.63;;;22.50;68.10;;;;;;5056304;28;20236;-68
2021/07/14 04:54:49;;;;;;;8.23;7.53;;;22.50;68.10;;;;;;5055306;28;20237;-70
2021/07/14 04:57:14;;;;;;;8.10;7.30;;;22.50;68.10;;;;;;5056146;28;20710;-67
2021/07/14 04:59:40;;;;;;;8.05;7.45;;;22.50;68.10;;;;;;5056020;28;20528;-67
2021/07/14 05:02:06;;;;;;;8.32;7.55;;;22.50;68.10;;;;;;5055346;28;20175;-67
2021/07/14 05:04:35;;;;;;;8.25;7.40;;;22.50;68.10;;;;;;5055647;28;20241;-68
2021/07/14 05:07:01;;;;;;;8.48;7.75;;;22.50;68.10;;;;;;5056075;28;20252;-68
2021/07/14 05:09:26;;;;;;;8.07;7.38;;;22.50;68.10;;;;;;5055511;28;20661;-69
2021/07/14 05:11:52;;;;;;;8.02;7.35;;;22.50;68.10;;;;;;5055368;28;20221;-68
2021/07/14 05:14:17;;;;;;;9.07;8.27;;;22.50;68.20;;;;;;5056057;28;20187;-68
2021/07/14 05:16:43;;;;;;;8.25;7.50;;;22.50;68.10;;;;;;5054990;28;20171;-68
2021/07/14 05:19:14;;;;;;;8.25;7.50;;;22.50;68.10;;;;;;5055791;28;20221;-68
2021/07/14 05:21:39;;;;;;;8.90;7.88;;;22.50;68.10;;;;;;5054762;28;20217;-68
2021/07/14 05:24:05;;;;;;;8.05;7.43;;;22.50;68.10;;;;;;5055747;28;20179;-67
2021/07/14 05:26:31;;;;;;;7.80;7.15;;;22.50;68.10;;;;;;5055169;28;20689;-67
2021/07/14 05:28:56;;;;;;;7.65;7.05;;;22.50;68.10;;;;;;5054979;28;20223;-67
2021/07/14 05:31:22;;;;;;;8.25;7.55;;;22.50;68.10;;;;;;5055925;28;20541;-67
2021/07/14 05:33:47;;;;;;;7.57;6.97;;;22.50;68.10;;;;;;5055746;28;20676;-67
2021/07/14 05:36:13;;;;;;;7.40;6.80;;;22.50;68.10;;;;;;5054778;28;20261;-68
2021/07/14 05:38:47;;;;;;;7.70;7.05;;;22.50;68.10;;;;;;5055092;28;20183;-68
2021/07/14 05:41:13;;;;;;;8.20;7.40;;;22.50;68.10;;;;;;5055626;28;20526;-69
2021/07/14 05:43:39;;;;;;;7.72;7.03;;;22.50;68.10;;;;;;5054489;28;20633;-68
2021/07/14 05:46:04;;;;;;;7.68;6.97;;;22.50;68.10;;;;;;5055293;28;20642;-67
2021/07/14 05:48:30;;;;;;;8.15;7.45;;;22.50;68.10;;;;;;5054961;28;20215;-69
2021/07/14 05:50:57;;;;;;;7.13;6.53;;;22.50;68.10;;;;;;5054559;28;20194;-68
2021/07/14 05:53:23;;;;;;;7.35;6.75;;;22.50;68.10;;;;;;5055117;28;20179;-69
2021/07/14 05:55:48;;;;;;;7.63;6.90;;;22.50;68.10;;;;;;5055385;28;20179;-69
2021/07/14 05:58:14;;;;;;;8.07;7.28;;;22.50;68.10;;;;;;5054204;28;20172;-68
2021/07/14 06:00:40;;;;;;;7.40;6.80;;;22.50;68.10;;;;;;5054861;28;20171;-68
2021/07/14 06:03:08;;;;;;;7.95;7.25;;;22.50;68.00;;;;;;5054983;28;20168;-67
2021/07/14 06:05:37;;;;;;;7.70;7.05;;;22.50;68.10;;;;;;5053931;28;20172;-69
2021/07/14 06:08:03;;;;;;;6.97;6.38;;;22.50;68.00;;;;;;5054705;28;20203;-69
2021/07/14 06:10:29;;;;;;;7.18;6.57;;;22.60;68.10;;;;;;5054919;28;20175;-69
2021/07/14 06:12:58;;;;;;;7.95;7.25;;;22.60;68.00;;;;;;5053854;28;20180;-68
2021/07/14 06:15:24;;;;;;;7.60;6.90;;;22.50;68.00;;;;;;5054693;28;20578;-68
2021/07/14 06:17:50;;;;;;;7.80;7.15;;;22.60;68.00;;;;;;5053860;28;20247;-69
2021/07/14 06:20:15;;;;;;;7.95;7.18;;;22.60;68.00;;;;;;5054624;28;20182;-69
2021/07/14 06:22:41;;;;;;;7.35;6.75;;;22.60;67.90;;;;;;5054232;28;20171;-68
2021/07/14 06:25:09;;;;;;;7.38;6.78;;;22.60;67.90;;;;;;5053703;28;20574;-67
2021/07/14 06:27:34;;;;;;;6.90;6.30;;;22.60;67.90;;;;;;5054507;28;20217;-67
2021/07/14 06:30:05;;;;;;;7.20;6.60;;;22.60;67.90;;;;;;5054576;28;20179;-67
2021/07/14 06:32:31;;;;;;;7.85;7.10;;;22.60;67.80;;;;;;5053546;28;20175;-68
2021/07/14 06:34:57;;;;;;;7.40;6.80;;;22.60;67.90;;;;;;5054518;28;20656;-68
2021/07/14 06:37:22;;;;;;;7.10;6.50;;;22.60;67.90;;;;;;5054446;28;20269;-68
2021/07/14 06:39:48;;;;;;;7.10;6.47;;;22.60;67.90;;;;;;5053399;28;20182;-67
2021/07/14 06:42:13;;;;;;;7.40;6.78;;;22.60;68.00;;;;;;5054386;28;20167;-67
2021/07/14 06:44:39;;;;;;;7.10;6.50;;;22.60;67.90;;;;;;5053994;28;20190;-68
2021/07/14 06:47:04;;;;;;;7.00;6.40;;;22.60;67.90;;;;;;5053383;28;20598;-68
2021/07/14 06:49:31;;;;;;;8.02;7.32;;;22.60;67.90;;;;;;5053598;28;20219;-69
2021/07/14 06:51:56;;;;;;;7.05;6.45;;;22.60;67.90;;;;;;5054294;28;20183;-68
2021/07/14 06:54:22;;;;;;;7.50;6.90;;;22.60;68.00;;;;;;5053491;28;20183;-68
2021/07/14 06:56:47;;;;;;;7.93;7.22;;;22.60;68.00;;;;;;5053708;28;20517;-68
2021/07/14 06:59:13;;;;;;;7.45;6.80;;;22.60;68.00;;;;;;5054059;28;20211;-67
2021/07/14 07:01:38;;;;;;;7.40;6.80;;;22.60;68.00;;;;;;5052926;28;20177;-67
2021/07/14 07:04:04;;;;;;;7.30;6.70;;;22.60;68.00;;;;;;5053767;28;20179;-68
2021/07/14 07:06:30;;;;;;;7.30;6.70;;;22.60;68.10;;;;;;5053475;28;20543;-69
2021/07/14 07:08:55;;;;;;;8.02;6.40;;;22.60;68.10;;;;;;5052405;28;20211;-68
2021/07/14 07:11:20;;;;;;;7.28;6.68;;;22.60;68.10;;;;;;5053465;28;20545;-68
2021/07/14 07:13:46;;;;;;;7.45;6.78;;;22.60;68.10;;;;;;5053387;28;20183;-68
2021/07/14 07:16:11;;;;;;;7.13;6.57;;;22.60;68.10;;;;;;5052894;28;20179;-68
2021/07/14 07:18:37;;;;;;;7.28;6.68;;;22.60;68.10;;;;;;5053097;28;20205;-68
2021/07/14 07:21:07;;;;;;;7.10;6.40;;;22.60;68.10;;;;;;5053083;28;20177;-68
2021/07/14 07:23:32;;;;;;;7.25;6.70;;;22.60;68.10;;;;;;5053399;28;20175;-68
2021/07/14 07:25:58;;;;;;;8.05;7.35;;;22.60;68.00;;;;;;5053411;28;20742;-67
2021/07/14 07:28:28;;;;;;;7.45;6.85;;;22.60;68.00;;;;;;5052788;28;20736;-67
2021/07/14 07:30:54;;;;;;;7.00;6.40;;;22.60;68.00;;;;;;5053201;28;20175;-67
2021/07/14 07:33:20;;;;;;;7.28;6.75;;;22.60;68.00;;;;;;5053239;28;20174;-67
2021/07/14 07:35:45;;;;;;;6.90;6.30;;;22.60;68.00;;;;;;5052488;28;20171;-67
2021/07/14 07:38:11;;;;;;;7.32;6.72;;;22.60;67.90;;;;;;5053127;28;20550;-67
2021/07/14 07:40:37;;;;;;;7.35;6.65;;;22.60;67.90;;;;;;5052940;28;20183;-68
2021/07/14 07:43:02;;;;;;;7.25;6.65;;;22.60;67.90;;;;;;5052527;28;20167;-67
2021/07/14 07:45:28;;;;;;;6.88;6.28;;;22.60;67.90;;;;;;5053181;28;20167;-67
2021/07/14 07:47:53;;;;;;;7.03;6.53;;;22.60;68.00;;;;;;5052761;28;20330;-68
2021/07/14 07:50:19;;;;;;;7.55;6.88;;;22.60;68.00;;;;;;5052220;28;20525;-67
2021/07/14 07:52:44;;;;;;;6.47;5.93;;;22.60;68.00;;;;;;5052818;28;20178;-68
2021/07/14 07:55:10;;;;;;;7.53;6.82;;;22.60;68.00;;;;;;5052934;28;20656;-67
2021/07/14 07:57:38;;;;;;;7.05;6.45;;;22.60;68.00;;;;;;5051882;28;20189;-67
2021/07/14 08:00:06;;;;;;;7.70;7.00;;;22.60;68.00;;;;;;5053070;28;20540;-68
2021/07/14 08:02:32;;;;;;;6.63;6.13;;;22.60;68.00;;;;;;5052487;28;20229;-65
2021/07/14 08:04:57;;;;;;;8.00;7.30;;;22.60;68.00;;;;;;5052033;28;20575;-67
2021/07/14 08:07:23;;;;;;;8.95;8.15;;;22.60;68.80;;;;;;5052810;28;20166;-68
2021/07/14 08:09:48;;;;;;;8.65;7.88;;;22.60;68.90;;;;;;5052532;28;20175;-67
2021/07/14 08:12:17;;;;;;;8.88;7.97;;;22.70;68.80;;;;;;5052027;28;20182;-68
2021/07/14 08:14:42;;;;;;;8.55;7.75;;;22.70;68.50;;;;;;5052529;28;20186;-68
2021/07/14 08:17:08;;;;;;;8.63;7.55;;;22.70;68.50;;;;;;5052686;28;20246;-68
2021/07/14 08:19:33;;;;;;;9.35;8.15;;;22.70;68.40;;;;;;5051717;28;20561;-68
2021/07/14 08:21:59;;;;;;;8.48;7.75;;;22.70;68.30;;;;;;5056975;28;20178;-68
2021/07/14 08:24:24;;;;;;;7.72;7.13;;;22.70;68.30;;;;;;5056361;28;20266;-67
2021/07/14 08:26:50;;;;;;;7.15;6.55;;;22.70;68.30;;;;;;5056245;28;20246;-67
2021/07/14 08:29:15;;;;;;;8.45;7.63;;;22.70;68.20;;;;;;5056645;28;20672;-67
2021/07/14 08:31:43;;;;;;;8.15;7.45;;;22.70;68.30;;;;;;5055697;28;20225;-68
2021/07/14 08:34:09;;;;;;;8.25;7.47;;;22.70;68.20;;;;;;5056857;28;20194;-68
2021/07/14 08:36:34;;;;;;;7.90;7.20;;;22.70;68.30;;;;;;5056347;28;20175;-69
2021/07/14 08:39:00;;;;;;;8.27;7.47;;;22.70;68.20;;;;;;5055715;28;20625;-68
2021/07/14 08:41:25;;;;;;;7.53;6.93;;;22.70;68.20;;;;;;5056721;28;20208;-68
2021/07/14 08:43:52;;;;;;;8.40;7.60;;;22.70;68.20;;;;;;5055164;28;20270;-69
2021/07/14 08:46:17;;;;;;;7.25;6.65;;;22.70;68.20;;;;;;5054592;28;20179;-68
2021/07/14 08:48:44;;;;;;;8.18;7.38;;;22.70;68.20;;;;;;5055140;28;20207;-68
2021/07/14 08:51:09;;;;;;;8.00;7.30;;;22.70;68.20;;;;;;5055305;28;20249;-67
2021/07/14 08:53:35;;;;;;;8.63;7.88;;;22.70;68.20;;;;;;5054380;28;20641;-67
2021/07/14 08:56:00;;;;;;;8.40;7.70;;;22.70;68.10;;;;;;5056383;28;20175;-67
2021/07/14 08:58:26;;;;;;;8.27;7.53;;;22.70;68.20;;;;;;5056338;28;20550;-67
2021/07/14 09:00:53;;;;;;;8.10;7.40;;;22.70;68.20;;;;;;5055166;28;20186;-67
2021/07/14 09:03:19;;;;;;;7.90;7.25;;;22.70;68.10;;;;;;5056270;28;20182;-67
2021/07/14 09:05:44;;;;;;;7.80;7.03;;;22.70;68.20;;;;;;5056106;28;20171;-67
2021/07/14 09:08:10;;;;;;;7.75;7.10;;;22.70;68.20;;;;;;5055428;28;20227;-68
2021/07/14 09:10:36;;;;;;;7.95;7.25;;;22.70;68.20;;;;;;5055758;28;20233;-68
2021/07/14 09:13:02;;;;;;;7.70;7.07;;;22.70;68.10;;;;;;5055409;28;20321;-67
2021/07/14 09:15:28;;;;;;;7.68;7.07;;;22.70;68.10;;;;;;5055151;28;20229;-67
2021/07/14 09:17:55;;;;;;;8.27;7.45;;;22.70;68.00;;;;;;5055682;28;20180;-68
2021/07/14 09:20:33;;;;;;;8.10;7.40;;;22.70;68.10;;;;;;5056020;28;20192;-67
2021/07/14 09:23:07;;;;;;;7.45;6.65;;;22.70;68.10;;;;;;5055447;28;20205;-67
2021/07/14 09:25:47;;;;;;;8.65;7.93;;;22.70;68.10;;;;;;5055301;28;20268;-67
2021/07/14 09:28:17;;;;;;;7.70;7.00;;;22.70;68.10;;;;;;5055132;28;20297;-67
2021/07/14 09:30:43;;;;;;;8.13;7.38;;;22.70;68.00;;;;;;5055479;28;20263;-67
2021/07/14 09:33:10;;;;;;;7.95;7.25;;;22.80;68.20;;;;;;5055054;28;20182;-67
2021/07/14 09:35:41;;;;;;;8.50;7.80;;;22.70;68.10;;;;;;5054607;28;20233;-67
2021/07/14 09:38:13;;;;;;;8.65;7.95;;;22.70;68.20;;;;;;5055525;28;20194;-68
2021/07/14 09:40:40;;;;;;;8.18;7.38;;;22.70;68.20;;;;;;5055108;28;20182;-67
2021/07/14 09:43:16;;;;;;;7.45;6.88;;;22.70;68.20;;;;;;5054885;28;20179;-67
2021/07/14 09:45:46;;;;;;;8.18;7.47;;;22.70;68.30;;;;;;5055260;28;20202;-67
2021/07/14 09:48:23;;;;;;;8.05;7.35;;;22.70;68.20;;;;;;5055366;28;20310;-67
2021/07/14 09:50:55;;;;;;;8.27;7.55;;;22.70;68.20;;;;;;5054040;28;20206;-67
2021/07/14 09:53:23;;;;;;;7.90;7.20;;;22.70;68.20;;;;;;5055377;28;20179;-67
2021/07/14 09:55:51;;;;;;;8.43;7.72;;;22.70;68.10;;;;;;5054356;28;20197;-67
2021/07/14 09:58:21;;;;;;;8.52;7.82;;;22.70;68.10;;;;;;5055102;28;20206;-67
2021/07/14 10:00:57;;;;;;;8.32;7.55;;;22.70;68.10;;;;;;5054942;28;20208;-67
2021/07/14 10:03:28;;;;;;;8.30;7.55;;;22.80;68.10;;;;;;5054270;28;20186;-66
2021/07/14 10:06:01;;;;;;;8.48;7.70;;;22.80;68.10;;;;;;5054873;28;20232;-68
2021/07/14 10:08:26;;;;;;;8.68;7.88;;;22.80;68.00;;;;;;5055052;28;20219;-69
2021/07/14 10:10:52;;;;;;;9.48;8.57;;;22.80;68.00;;;;;;5053833;28;20179;-68
2021/07/14 10:13:18;;;;;;;8.90;8.10;;;22.80;68.00;;;;;;5053428;28;20191;-68
2021/07/14 10:15:44;;;;;;;9.35;8.27;;;22.80;68.10;;;;;;5054582;28;20175;-68
2021/07/14 10:18:13;;;;;;;9.82;8.90;;;22.80;68.40;;;;;;5053868;28;20170;-69
2021/07/14 10:20:40;;;;;;;9.65;8.70;;;22.80;68.60;;;;;;5053223;28;20697;-69
2021/07/14 10:23:15;;;;;;;8.90;8.13;;;22.70;68.40;;;;;;5054774;28;20540;-68
2021/07/14 10:25:42;;;;;;;10.75;8.95;;;22.80;68.30;;;;;;5053518;28;20233;-67
2021/07/14 10:28:09;;;;;;;8.43;7.63;;;22.80;68.30;;;;;;5054471;28;20622;-67
2021/07/14 10:30:34;;;;;;;10.23;9.32;;;22.80;68.30;;;;;;5054166;28;20179;-67
2021/07/14 10:33:00;;;;;;;12.48;10.70;;;22.70;68.30;;;;;;5053887;28;20236;-67
2021/07/14 10:35:28;;;;;;;12.43;11.10;;;22.70;69.20;;;;;;5054510;28;20175;-67
2021/07/14 10:37:59;;;;;;;11.38;10.13;;;22.80;69.40;;;;;;5054052;28;20636;-67
2021/07/14 10:40:25;;;;;;;11.57;10.45;;;22.80;69.30;;;;;;5053147;28;20641;-67
2021/07/14 10:42:51;;;;;;;11.77;10.55;;;22.80;69.40;;;;;;5053650;28;20175;-67
2021/07/14 10:45:17;;;;;;;11.43;10.23;;;22.80;69.50;;;;;;5052922;28;20277;-67
2021/07/14 10:47:47;;;;;;;12.85;11.50;;;22.80;69.50;;;;;;5054026;28;20203;-68
2021/07/14 10:50:13;;;;;;;11.07;10.07;;;22.80;69.60;;;;;;5054217;28;20179;-69
2021/07/14 10:52:39;;;;;;;11.55;10.40;;;22.80;69.60;;;;;;5053177;28;20273;-70
2021/07/14 10:55:06;;;;;;;12.30;10.95;;;22.80;69.50;;;;;;5054068;28;20199;-70
2021/07/14 10:57:33;;;;;;;11.10;9.88;;;22.80;69.50;;;;;;5053681;28;20178;-70
2021/07/14 10:59:58;;;;;;;12.57;11.13;;;22.80;69.50;;;;;;5052224;28;20262;-71
2021/07/14 11:02:47;;;;;;;11.85;10.60;;;22.80;69.40;;;;;;5052812;28;20257;-71
2021/07/14 11:05:14;;;;;;;11.38;10.20;;;22.90;69.40;;;;;;5054022;28;20191;-68
2021/07/14 11:07:44;;;;;;;14.52;11.20;;;22.90;69.50;;;;;;5052654;28;20183;-68
2021/07/14 11:10:31;;;;;;;12.25;10.95;;;22.90;69.40;;;;;;5053864;28;20171;-68
2021/07/14 11:12:58;;;;;;;12.60;11.35;;;22.90;69.30;;;;;;5056798;28;20430;-69
2021/07/14 11:15:42;;;;;;;11.90;10.70;;;22.90;69.00;;;;;;5057968;28;20654;-69
2021/07/14 11:18:29;;;;;;;11.98;10.77;;;22.90;69.10;;;;;;5071909;28;20215;-69
2021/07/14 11:20:55;;;;;;;11.23;10.13;;;22.80;69.10;;;;;;5065169;28;20171;-69
2021/07/14 11:23:22;;;;;;;12.75;10.77;;;22.80;69.10;;;;;;5053768;28;20183;-69
2021/07/14 11:25:49;;;;;;;12.15;10.95;;;22.80;69.20;;;;;;5053052;28;20317;-68
2021/07/14 11:28:15;;;;;;;12.40;11.15;;;22.70;69.20;;;;;;5052527;28;20214;-67
2021/07/14 11:30:42;;;;;;;11.60;10.50;;;22.70;69.20;;;;;;5070507;28;20179;-68
2021/07/14 11:33:08;;;;;;;14.90;11.07;;;22.70;69.30;;;;;;5073380;28;20190;-68
2021/07/14 11:35:38;;;;;;;12.63;11.30;;;22.70;69.30;;;;;;5072436;28;20209;-68
2021/07/14 11:38:04;;;;;;;11.75;10.60;;;22.70;69.30;;;;;;5073240;28;20175;-67
2021/07/14 11:40:43;;;;;;;12.18;10.98;;;22.70;69.40;;;;;;5073174;28;20188;-66
2021/07/14 11:43:12;;;;;;;12.68;11.40;;;22.70;69.50;;;;;;5072413;28;20197;-68
2021/07/14 11:45:38;;;;;;;12.63;10.77;;;22.70;69.50;;;;;;5072530;28;20649;-68
2021/07/14 11:48:07;;;;;;;12.45;11.15;;;22.70;69.80;;;;;;5052999;28;20218;-68
2021/07/14 11:50:51;;;;;;;11.65;10.45;;;22.70;69.80;;;;;;5052130;28;20256;-68
2021/07/14 11:53:30;;;;;;;11.30;10.18;;;22.60;69.50;;;;;;5053240;28;20214;-68
2021/07/14 11:56:15;;;;;;;11.90;10.80;;;22.60;69.40;;;;;;5051821;28;20171;-68
2021/07/14 11:58:47;;;;;;;11.73;10.38;;;22.70;69.60;;;;;;5051864;28;20206;-69
2021/07/14 12:01:16;;;;;;;11.57;10.48;;;22.70;69.30;;;;;;5052914;28;20168;-67
2021/07/14 12:03:41;;;;;;;11.13;10.13;;;22.70;69.40;;;;;;5051800;28;20172;-68
2021/07/14 12:06:35;;;;;;;10.73;9.73;;;22.70;69.30;;;;;;5052656;28;20179;-68
2021/07/14 12:09:13;;;;;;;15.70;9.60;;;22.70;69.40;;;;;;5052582;28;20669;-70
2021/07/14 12:11:39;;;;;;;10.20;9.20;;;22.70;69.40;;;;;;5051862;28;20228;-70
2021/07/14 12:14:05;;;;;;;10.57;9.60;;;22.70;69.50;;;;;;5052708;28;20205;-69
2021/07/14 12:16:31;;;;;;;10.57;9.57;;;22.70;69.50;;;;;;5051592;28;20201;-67
2021/07/14 12:18:57;;;;;;;12.45;10.50;;;22.70;69.40;;;;;;5052547;28;20178;-67
2021/07/14 12:21:35;;;;;;;11.27;10.23;;;22.70;69.40;;;;;;5066419;28;20179;-67
2021/07/14 12:24:01;;;;;;;10.80;9.70;;;22.70;69.30;;;;;;5072119;28;20171;-67
2021/07/14 12:26:26;;;;;;;10.73;9.65;;;22.80;69.20;;;;;;5072421;28;20237;-66
2021/07/14 12:28:52;;;;;;;10.80;9.70;;;22.80;69.20;;;;;;5072339;28;20206;-67
2021/07/14 12:31:19;;;;;;;11.00;9.90;;;22.80;69.10;;;;;;5071901;28;20170;-66
2021/07/14 12:33:51;;;;;;;11.27;10.18;;;22.80;69.30;;;;;;5072172;28;20652;-67
2021/07/14 12:36:18;;;;;;;11.35;10.32;;;22.80;69.30;;;;;;5072789;28;20185;-67
2021/07/14 12:38:54;;;;;;;11.55;10.40;;;22.80;69.20;;;;;;5071507;28;20227;-67
2021/07/14 12:41:26;;;;;;;11.40;10.25;;;22.80;70.00;;;;;;5073024;28;20185;-67
2021/07/14 12:44:21;;;;;;;10.65;9.55;;;22.90;69.10;;;;;;5072587;28;20178;-67
2021/07/14 12:46:46;;;;;;;11.90;10.70;;;22.90;69.00;;;;;;5066807;28;20554;-67
2021/07/14 12:49:13;;;;;;;10.88;9.65;;;22.90;69.00;;;;;;5072509;28;20217;-67
2021/07/14 12:51:39;;;;;;;10.70;9.60;;;22.90;69.00;;;;;;5071731;28;20175;-67
2021/07/14 12:54:05;;;;;;;11.02;9.93;;;22.90;68.80;;;;;;5072559;28;20300;-67
2021/07/14 12:56:31;;;;;;;10.55;9.55;;;22.90;68.80;;;;;;5071925;28;20175;-67